createdAt,value
2019-05-25T00:00:31.530Z,428.94
2019-05-25T00:01:31.523Z,427.76
2019-05-25T00:02:31.537Z,429.22
2019-05-25T00:03:31.502Z,428.92
2019-05-25T00:04:31.503Z,429.07
2019-05-25T00:05:31.473Z,429.32
2019-05-25T00:06:31.465Z,428.41
2019-05-25T00:07:31.472Z,428.61
2019-05-25T00:08:31.446Z,428.52
2019-05-25T00:09:31.431Z,429.38
2019-05-25T00:10:31.418Z,427.19
2019-05-25T00:11:31.409Z,428.89
2019-05-25T00:12:31.409Z,428.14
2019-05-25T00:13:31.385Z,428.38
2019-05-25T00:14:31.373Z,428.54
2019-05-25T00:15:31.404Z,428.57
2019-05-25T00:16:31.351Z,428.96
2019-05-25T00:17:31.337Z,428.80
2019-05-25T00:18:31.325Z,428.64
2019-05-25T00:19:31.318Z,428.85
2019-05-25T00:20:31.303Z,429.18
2019-05-25T00:21:31.292Z,428.10
2019-05-25T00:22:31.300Z,428.51
2019-05-25T00:23:31.269Z,428.00
2019-05-25T00:24:31.265Z,429.10
2019-05-25T00:25:31.251Z,429.42
2019-05-25T00:26:31.257Z,428.62
2019-05-25T00:27:31.222Z,429.31
2019-05-25T00:28:31.211Z,428.48
2019-05-25T00:29:31.217Z,428.30
2019-05-25T00:30:31.189Z,428.30
2019-05-25T00:31:31.194Z,429.32
2019-05-25T00:32:31.169Z,429.18
2019-05-25T00:33:31.178Z,428.54
2019-05-25T00:34:31.156Z,428.81
2019-05-25T00:35:31.135Z,428.38
2019-05-25T00:36:31.131Z,428.33
2019-05-25T00:37:31.129Z,427.49
2019-05-25T00:38:31.099Z,429.13
2019-05-25T00:39:31.087Z,429.54
2019-05-25T00:40:31.075Z,427.44
2019-05-25T00:41:31.062Z,429.35
2019-05-25T00:42:31.069Z,429.25
2019-05-25T00:43:31.059Z,429.19
2019-05-25T00:44:31.029Z,429.39
2019-05-25T00:45:31.077Z,429.21
2019-05-25T00:46:31.005Z,428.49
2019-05-25T00:47:31.008Z,429.65
2019-05-25T00:48:30.999Z,428.21
2019-05-25T00:49:30.976Z,428.97
2019-05-25T00:50:30.966Z,428.96
2019-05-25T00:51:30.973Z,428.39
2019-05-25T00:52:30.939Z,427.91
2019-05-25T00:53:30.942Z,427.83
2019-05-25T00:54:30.918Z,427.91
2019-05-25T00:55:30.910Z,427.60
2019-05-25T00:56:30.918Z,429.99
2019-05-25T00:57:30.884Z,429.83
2019-05-25T00:58:30.875Z,429.48
2019-05-25T00:59:30.878Z,430.77
2019-05-25T01:00:30.853Z,430.56
2019-05-25T01:01:30.858Z,429.98
2019-05-25T01:02:30.866Z,428.74
2019-05-25T01:03:30.818Z,430.06
2019-05-25T01:04:30.807Z,430.04
2019-05-25T01:05:30.809Z,429.66
2019-05-25T01:06:30.783Z,429.90
2019-05-25T01:07:30.769Z,429.89
2019-05-25T01:08:30.765Z,429.09
2019-05-25T01:09:30.752Z,429.65
2019-05-25T01:10:30.737Z,428.91
2019-05-25T01:11:30.728Z,429.28
2019-05-25T01:12:30.713Z,429.75
2019-05-25T01:13:30.728Z,428.73
2019-05-25T01:14:30.710Z,429.89
2019-05-25T01:15:30.680Z,428.61
2019-05-25T01:16:30.679Z,428.31
2019-05-25T01:17:30.662Z,430.13
2019-05-25T01:18:30.652Z,430.86
2019-05-25T01:19:30.643Z,431.28
2019-05-25T01:20:30.621Z,430.52
2019-05-25T01:21:30.621Z,431.14
2019-05-25T01:22:30.619Z,430.29
2019-05-25T01:23:30.592Z,430.96
2019-05-25T01:24:43.254Z,430.39
2019-05-25T01:25:31.571Z,428.89
2019-05-25T01:26:30.558Z,429.54
2019-05-25T01:27:30.548Z,429.62
2019-05-25T01:28:30.531Z,429.80
2019-05-25T01:29:30.526Z,430.31
2019-05-25T01:30:30.515Z,429.18
2019-05-25T01:31:30.522Z,430.46
2019-05-25T01:32:30.494Z,430.85
2019-05-25T01:33:30.491Z,430.57
2019-05-25T01:34:30.481Z,430.78
2019-05-25T01:35:30.461Z,430.55
2019-05-25T01:36:30.448Z,428.81
2019-05-25T01:37:30.467Z,430.84
2019-05-25T01:38:30.416Z,429.85
2019-05-25T01:39:30.452Z,430.18
2019-05-25T01:40:30.405Z,428.31
2019-05-25T01:41:30.391Z,429.19
2019-05-25T01:42:30.400Z,429.94
2019-05-25T01:43:30.370Z,428.27
2019-05-25T01:44:30.407Z,429.62
2019-05-25T01:45:30.397Z,428.98
2019-05-25T01:46:30.358Z,430.28
2019-05-25T01:47:30.329Z,430.59
2019-05-25T01:48:30.320Z,428.23
2019-05-25T01:49:30.307Z,428.74
2019-05-25T01:50:30.299Z,430.23
2019-05-25T01:51:30.295Z,429.49
2019-05-25T01:52:30.274Z,429.69
2019-05-25T01:53:30.262Z,428.73
2019-05-25T01:54:30.257Z,429.23
2019-05-25T01:55:30.263Z,427.86
2019-05-25T01:56:30.249Z,430.37
2019-05-25T01:57:30.216Z,428.61
2019-05-25T01:58:30.202Z,429.73
2019-05-25T01:59:30.188Z,428.66
2019-05-25T02:00:30.194Z,429.60
2019-05-25T02:01:30.193Z,429.40
2019-05-25T02:02:30.158Z,428.97
2019-05-25T02:03:30.149Z,429.26
2019-05-25T02:04:30.141Z,427.38
2019-05-25T02:05:30.126Z,429.05
2019-05-25T02:06:30.132Z,429.28
2019-05-25T02:07:30.144Z,428.48
2019-05-25T02:08:30.095Z,429.15
2019-05-25T02:09:30.097Z,429.10
2019-05-25T02:10:30.070Z,428.75
2019-05-25T02:11:30.060Z,427.02
2019-05-25T02:12:30.061Z,430.45
2019-05-25T02:13:30.037Z,428.45
2019-05-25T02:14:30.027Z,430.32
2019-05-25T02:15:30.019Z,429.18
2019-05-25T02:16:30.006Z,430.06
2019-05-25T02:17:30.002Z,428.30
2019-05-25T02:18:29.993Z,429.33
2019-05-25T02:19:29.970Z,428.82
2019-05-25T02:20:29.979Z,429.99
2019-05-25T02:21:29.946Z,427.51
2019-05-25T02:22:29.942Z,429.03
2019-05-25T02:23:29.933Z,428.43
2019-05-25T02:24:29.952Z,428.95
2019-05-25T02:25:29.898Z,428.57
2019-05-25T02:26:29.890Z,428.47
2019-05-25T02:27:29.877Z,428.17
2019-05-25T02:28:29.874Z,427.12
2019-05-25T02:29:29.861Z,428.99
2019-05-25T02:30:29.849Z,430.10
2019-05-25T02:31:29.838Z,428.57
2019-05-25T02:32:29.823Z,428.10
2019-05-25T02:33:29.810Z,430.06
2019-05-25T02:34:29.805Z,428.49
2019-05-25T02:35:29.805Z,429.24
2019-05-25T02:36:29.776Z,429.27
2019-05-25T02:37:29.763Z,430.15
2019-05-25T02:38:29.753Z,429.62
2019-05-25T02:39:29.750Z,430.03
2019-05-25T02:40:29.737Z,428.90
2019-05-25T02:41:29.720Z,429.49
2019-05-25T02:42:29.714Z,428.48
2019-05-25T02:43:29.702Z,430.70
2019-05-25T02:44:29.684Z,429.49
2019-05-25T02:45:29.676Z,429.35
2019-05-25T02:46:29.680Z,428.95
2019-05-25T02:47:29.656Z,429.63
2019-05-25T02:48:29.645Z,427.70
2019-05-25T02:49:29.632Z,428.09
2019-05-25T02:50:29.616Z,428.77
2019-05-25T02:51:29.608Z,428.91
2019-05-25T02:52:29.622Z,428.61
2019-05-25T02:53:29.619Z,427.47
2019-05-25T02:54:29.578Z,428.60
2019-05-25T02:55:34.341Z,427.78
2019-05-25T02:56:30.560Z,427.79
2019-05-25T02:57:29.552Z,426.01
2019-05-25T02:58:29.526Z,428.62
2019-05-25T02:59:29.522Z,428.38
2019-05-25T03:00:29.504Z,427.95
2019-05-25T03:01:29.504Z,427.11
2019-05-25T03:02:29.487Z,427.56
2019-05-25T03:03:29.486Z,429.20
2019-05-25T03:04:29.461Z,427.31
2019-05-25T03:05:29.446Z,428.50
2019-05-25T03:06:29.464Z,427.75
2019-05-25T03:07:29.420Z,427.58
2019-05-25T03:08:29.426Z,428.64
2019-05-25T03:09:29.402Z,428.33
2019-05-25T03:10:29.396Z,427.64
2019-05-25T03:11:29.392Z,428.74
2019-05-25T03:12:29.365Z,428.79
2019-05-25T03:13:29.362Z,428.51
2019-05-25T03:14:29.363Z,427.75
2019-05-25T03:15:29.332Z,429.02
2019-05-25T03:16:29.332Z,428.34
2019-05-25T03:17:29.330Z,428.48
2019-05-25T03:18:29.303Z,426.89
2019-05-25T03:19:29.286Z,427.87
2019-05-25T03:20:29.275Z,428.84
2019-05-25T03:21:29.268Z,427.62
2019-05-25T03:22:29.266Z,428.19
2019-05-25T03:23:29.246Z,425.63
2019-05-25T03:24:29.252Z,427.98
2019-05-25T03:25:29.238Z,428.12
2019-05-25T03:26:29.208Z,429.76
2019-05-25T03:27:29.199Z,428.57
2019-05-25T03:28:29.185Z,426.64
2019-05-25T03:29:29.182Z,427.56
2019-05-25T03:30:29.271Z,429.03
2019-05-25T03:31:29.161Z,427.58
2019-05-25T03:32:29.144Z,427.40
2019-05-25T03:33:29.129Z,427.38
2019-05-25T03:34:29.114Z,427.39
2019-05-25T03:35:29.112Z,426.27
2019-05-25T03:36:29.118Z,427.14
2019-05-25T03:37:29.077Z,429.24
2019-05-25T03:38:29.072Z,427.25
2019-05-25T03:39:29.061Z,428.88
2019-05-25T03:40:29.049Z,427.70
2019-05-25T03:41:29.043Z,427.29
2019-05-25T03:42:29.026Z,428.79
2019-05-25T03:43:29.014Z,428.83
2019-05-25T03:44:29.010Z,427.19
2019-05-25T03:45:29.005Z,426.23
2019-05-25T03:46:28.979Z,427.56
2019-05-25T03:47:28.987Z,426.10
2019-05-25T03:48:28.961Z,428.25
2019-05-25T03:49:28.948Z,425.89
2019-05-25T03:50:28.940Z,427.21
2019-05-25T03:51:28.924Z,426.20
2019-05-25T03:52:28.924Z,425.53
2019-05-25T03:53:28.932Z,426.12
2019-05-25T03:54:28.890Z,427.20
2019-05-25T03:55:28.893Z,426.67
2019-05-25T03:56:28.874Z,425.73
2019-05-25T03:57:28.865Z,426.89
2019-05-25T03:58:28.858Z,427.07
2019-05-25T03:59:28.834Z,426.18
2019-05-25T04:00:28.828Z,427.32
2019-05-25T04:01:28.814Z,425.35
2019-05-25T04:02:28.827Z,426.06
2019-05-25T04:03:28.796Z,425.59
2019-05-25T04:04:28.794Z,426.02
2019-05-25T04:05:28.770Z,426.46
2019-05-25T04:06:28.765Z,424.95
2019-05-25T04:07:28.749Z,425.74
2019-05-25T04:08:28.736Z,424.98
2019-05-25T04:09:28.731Z,425.52
2019-05-25T04:10:28.710Z,425.75
2019-05-25T04:11:28.708Z,424.54
2019-05-25T04:12:28.697Z,426.39
2019-05-25T04:13:28.679Z,425.34
2019-05-25T04:14:28.672Z,425.48
2019-05-25T04:15:28.660Z,426.02
2019-05-25T04:16:28.646Z,426.82
2019-05-25T04:17:28.636Z,426.33
2019-05-25T04:18:28.640Z,427.29
2019-05-25T04:19:28.612Z,426.27
2019-05-25T04:20:28.608Z,425.93
2019-05-25T04:21:28.604Z,425.71
2019-05-25T04:22:28.588Z,426.84
2019-05-25T04:23:28.576Z,426.98
2019-05-25T04:24:28.577Z,427.09
2019-05-25T04:25:28.548Z,426.60
2019-05-25T04:26:28.551Z,426.81
2019-05-25T04:27:28.524Z,426.88
2019-05-25T04:28:28.517Z,426.92
2019-05-25T04:29:28.502Z,425.59
2019-05-25T04:30:28.508Z,425.32
2019-05-25T04:31:28.488Z,425.92
2019-05-25T04:32:28.491Z,425.91
2019-05-25T04:33:28.456Z,426.10
2019-05-25T04:34:28.444Z,426.40
2019-05-25T04:35:28.433Z,425.90
2019-05-25T04:36:28.442Z,425.69
2019-05-25T04:37:28.421Z,424.67
2019-05-25T04:38:28.498Z,424.75
2019-05-25T04:39:28.390Z,425.42
2019-05-25T04:40:28.378Z,424.02
2019-05-25T04:41:28.379Z,424.42
2019-05-25T04:42:28.354Z,423.88
2019-05-25T04:43:28.353Z,424.57
2019-05-25T04:44:28.333Z,425.66
2019-05-25T04:45:28.320Z,424.64
2019-05-25T04:46:28.315Z,424.76
2019-05-25T04:47:28.315Z,424.74
2019-05-25T04:48:28.294Z,424.44
2019-05-25T04:49:28.316Z,425.87
2019-05-25T04:50:28.264Z,425.64
2019-05-25T04:51:28.250Z,425.61
2019-05-25T04:52:28.247Z,425.10
2019-05-25T04:53:28.234Z,425.21
2019-05-25T04:54:28.229Z,425.26
2019-05-25T04:55:28.205Z,424.91
2019-05-25T04:56:38.788Z,424.30
2019-05-25T04:57:29.186Z,424.82
2019-05-25T04:58:28.195Z,424.82
2019-05-25T04:59:28.185Z,424.00
2019-05-25T05:00:28.163Z,424.98
2019-05-25T05:01:28.138Z,423.98
2019-05-25T05:02:28.128Z,423.23
2019-05-25T05:03:28.121Z,424.16
2019-05-25T05:04:28.106Z,424.91
2019-05-25T05:05:28.094Z,423.27
2019-05-25T05:06:28.111Z,423.11
2019-05-25T05:07:28.070Z,423.55
2019-05-25T05:08:28.063Z,423.52
2019-05-25T05:09:28.058Z,422.91
2019-05-25T05:10:28.040Z,423.13
2019-05-25T05:11:28.038Z,421.98
2019-05-25T05:12:28.031Z,421.67
2019-05-25T05:13:28.006Z,421.92
2019-05-25T05:14:27.990Z,421.36
2019-05-25T05:15:27.982Z,421.77
2019-05-25T05:16:27.974Z,421.22
2019-05-25T05:17:27.981Z,421.43
2019-05-25T05:18:27.948Z,421.12
2019-05-25T05:19:27.939Z,420.65
2019-05-25T05:20:27.934Z,420.92
2019-05-25T05:21:27.921Z,421.50
2019-05-25T05:22:27.950Z,421.07
2019-05-25T05:23:27.986Z,421.35
2019-05-25T05:24:27.875Z,421.32
2019-05-25T05:25:28.310Z,421.48
2019-05-25T05:26:28.094Z,421.59
2019-05-25T05:27:27.850Z,422.17
2019-05-25T05:28:27.850Z,422.36
2019-05-25T05:29:27.858Z,422.38
2019-05-25T05:30:27.826Z,422.33
2019-05-25T05:31:27.803Z,421.80
2019-05-25T05:32:28.154Z,421.92
2019-05-25T05:33:27.787Z,422.61
2019-05-25T05:34:27.805Z,422.24
2019-05-25T05:35:27.758Z,421.97
2019-05-25T05:36:27.749Z,422.25
2019-05-25T05:37:27.746Z,422.10
2019-05-25T05:38:27.735Z,421.88
2019-05-25T05:39:27.719Z,422.03
2019-05-25T05:40:27.747Z,421.86
2019-05-25T05:41:30.660Z,421.96
2019-05-25T05:42:27.677Z,422.42
2019-05-25T05:43:27.666Z,422.30
2019-05-25T05:44:27.653Z,421.83
2019-05-25T05:45:27.680Z,421.79
2019-05-25T05:46:27.630Z,421.72
2019-05-25T05:47:27.622Z,422.20
2019-05-25T05:48:27.685Z,422.67
2019-05-25T05:49:27.601Z,422.67
2019-05-25T05:50:27.604Z,423.22
2019-05-25T05:51:27.593Z,423.05
2019-05-25T05:52:27.563Z,423.18
2019-05-25T05:53:27.552Z,423.83
2019-05-25T05:54:27.548Z,423.84
2019-05-25T05:55:27.540Z,423.21
2019-05-25T05:56:27.536Z,425.07
2019-05-25T05:57:27.539Z,423.39
2019-05-25T05:58:27.495Z,423.78
2019-05-25T05:59:27.489Z,424.77
2019-05-25T06:00:27.579Z,425.14
2019-05-25T06:01:27.481Z,424.89
2019-05-25T06:02:27.471Z,425.43
2019-05-25T06:03:27.458Z,424.92
2019-05-25T06:04:27.451Z,425.31
2019-05-25T06:05:27.500Z,425.94
2019-05-25T06:06:27.425Z,425.51
2019-05-25T06:07:27.678Z,425.36
2019-05-25T06:08:27.381Z,425.18
2019-05-25T06:09:27.377Z,426.26
2019-05-25T06:10:27.363Z,426.15
2019-05-25T06:11:27.345Z,426.89
2019-05-25T06:12:27.351Z,425.37
2019-05-25T06:13:27.341Z,427.46
2019-05-25T06:14:27.529Z,428.20
2019-05-25T06:15:27.391Z,426.94
2019-05-25T06:16:27.295Z,425.36
2019-05-25T06:17:27.318Z,426.76
2019-05-25T06:18:27.410Z,425.71
2019-05-25T06:19:27.283Z,426.33
2019-05-25T06:20:27.249Z,426.27
2019-05-25T06:21:27.232Z,427.94
2019-05-25T06:22:27.224Z,427.63
2019-05-25T06:23:27.209Z,426.99
2019-05-25T06:24:27.218Z,427.87
2019-05-25T06:25:27.210Z,428.72
2019-05-25T06:26:27.178Z,427.41
2019-05-25T06:27:28.052Z,428.11
2019-05-25T06:28:27.159Z,428.22
2019-05-25T06:29:27.217Z,427.12
2019-05-25T06:30:27.135Z,428.52
2019-05-25T06:31:27.119Z,427.77
2019-05-25T06:32:27.109Z,427.72
2019-05-25T06:33:27.096Z,427.31
2019-05-25T06:34:27.096Z,428.86
2019-05-25T06:35:27.099Z,427.95
2019-05-25T06:36:27.236Z,428.00
2019-05-25T06:37:27.077Z,428.06
2019-05-25T06:38:27.040Z,428.27
2019-05-25T06:39:27.033Z,426.86
2019-05-25T06:40:27.021Z,428.26
2019-05-25T06:41:27.031Z,428.22
2019-05-25T06:42:27.000Z,427.13
2019-05-25T06:43:26.981Z,427.81
2019-05-25T06:44:26.972Z,427.62
2019-05-25T06:45:26.961Z,428.43
2019-05-25T06:46:26.967Z,428.47
2019-05-25T06:47:26.961Z,427.39
2019-05-25T06:48:26.964Z,427.95
2019-05-25T06:49:26.957Z,425.54
2019-05-25T06:50:26.901Z,428.22
2019-05-25T06:51:26.914Z,427.34
2019-05-25T06:52:26.898Z,426.31
2019-05-25T06:53:26.879Z,427.28
2019-05-25T06:54:26.866Z,426.77
2019-05-25T06:55:26.847Z,427.59
2019-05-25T06:56:26.831Z,427.41
2019-05-25T06:57:40.196Z,426.67
2019-05-25T06:58:27.861Z,426.69
2019-05-25T06:59:26.911Z,425.96
2019-05-25T07:00:26.792Z,427.21
2019-05-25T07:01:26.777Z,426.38
2019-05-25T07:02:26.886Z,427.76
2019-05-25T07:03:26.763Z,425.94
2019-05-25T07:04:26.776Z,425.80
2019-05-25T07:05:26.734Z,425.95
2019-05-25T07:06:26.737Z,427.41
2019-05-25T07:07:26.710Z,426.50
2019-05-25T07:08:26.702Z,427.39
2019-05-25T07:09:26.690Z,427.47
2019-05-25T07:10:26.671Z,425.73
2019-05-25T07:11:26.671Z,425.69
2019-05-25T07:12:26.656Z,427.07
2019-05-25T07:13:28.604Z,426.07
2019-05-25T07:14:26.655Z,427.12
2019-05-25T07:15:26.765Z,427.06
2019-05-25T07:16:26.653Z,426.75
2019-05-25T07:17:26.596Z,425.28
2019-05-25T07:18:26.588Z,425.03
2019-05-25T07:19:26.590Z,426.35
2019-05-25T07:20:26.577Z,424.28
2019-05-25T07:21:26.709Z,424.33
2019-05-25T07:22:26.545Z,425.31
2019-05-25T07:23:26.535Z,426.54
2019-05-25T07:24:26.524Z,426.77
2019-05-25T07:25:26.826Z,423.71
2019-05-25T07:26:26.493Z,426.22
2019-05-25T07:27:26.492Z,425.99
2019-05-25T07:28:26.475Z,425.67
2019-05-25T07:29:26.462Z,425.65
2019-05-25T07:30:26.460Z,425.37
2019-05-25T07:31:26.440Z,425.44
2019-05-25T07:32:26.450Z,423.95
2019-05-25T07:33:26.421Z,426.27
2019-05-25T07:34:26.408Z,425.11
2019-05-25T07:35:26.397Z,425.67
2019-05-25T07:36:26.402Z,425.52
2019-05-25T07:37:26.390Z,425.92
2019-05-25T07:38:26.358Z,427.38
2019-05-25T07:39:26.532Z,427.14
2019-05-25T07:40:26.525Z,427.22
2019-05-25T07:41:26.326Z,426.93
2019-05-25T07:42:26.359Z,426.13
2019-05-25T07:43:26.509Z,425.17
2019-05-25T07:44:26.296Z,425.01
2019-05-25T07:45:26.283Z,424.65
2019-05-25T07:46:26.538Z,424.58
2019-05-25T07:47:26.259Z,425.73
2019-05-25T07:48:26.453Z,426.69
2019-05-25T07:49:26.251Z,425.52
2019-05-25T07:50:26.237Z,425.81
2019-05-25T07:51:26.209Z,426.73
2019-05-25T07:52:26.213Z,427.20
2019-05-25T07:53:26.202Z,426.27
2019-05-25T07:54:26.418Z,425.61
2019-05-25T07:55:26.177Z,426.17
2019-05-25T07:56:26.181Z,425.71
2019-05-25T07:57:28.609Z,426.68
2019-05-25T07:58:26.135Z,426.88
2019-05-25T07:59:26.145Z,425.57
2019-05-25T08:00:26.127Z,425.63
2019-05-25T08:01:26.141Z,426.36
2019-05-25T08:02:26.087Z,425.88
2019-05-25T08:03:26.076Z,425.98
2019-05-25T08:04:26.075Z,424.67
2019-05-25T08:05:26.059Z,425.70
2019-05-25T08:06:26.051Z,426.30
2019-05-25T08:07:26.034Z,425.38
2019-05-25T08:08:26.019Z,426.51
2019-05-25T08:09:26.009Z,424.92
2019-05-25T08:10:25.999Z,425.83
2019-05-25T08:11:25.987Z,424.87
2019-05-25T08:12:25.975Z,425.88
2019-05-25T08:13:26.018Z,426.75
2019-05-25T08:14:26.005Z,426.04
2019-05-25T08:15:26.006Z,425.22
2019-05-25T08:16:25.989Z,424.29
2019-05-25T08:17:25.919Z,425.19
2019-05-25T08:18:25.909Z,425.80
2019-05-25T08:19:25.891Z,425.31
2019-05-25T08:20:25.893Z,425.84
2019-05-25T08:21:25.869Z,424.56
2019-05-25T08:22:25.918Z,424.62
2019-05-25T08:23:25.862Z,423.76
2019-05-25T08:24:25.865Z,425.61
2019-05-25T08:25:25.835Z,425.78
2019-05-25T08:26:25.833Z,425.85
2019-05-25T08:27:25.799Z,425.23
2019-05-25T08:28:32.665Z,425.72
2019-05-25T08:29:26.798Z,425.26
2019-05-25T08:30:25.895Z,425.62
2019-05-25T08:31:25.767Z,425.89
2019-05-25T08:32:25.771Z,425.94
2019-05-25T08:33:25.736Z,424.96
2019-05-25T08:34:25.721Z,425.65
2019-05-25T08:35:25.713Z,424.75
2019-05-25T08:36:25.707Z,424.92
2019-05-25T08:37:25.713Z,426.18
2019-05-25T08:38:25.679Z,426.31
2019-05-25T08:39:25.671Z,423.97
2019-05-25T08:40:25.653Z,424.81
2019-05-25T08:41:25.643Z,424.34
2019-05-25T08:42:25.636Z,425.69
2019-05-25T08:43:25.643Z,425.60
2019-05-25T08:44:25.610Z,425.32
2019-05-25T08:45:26.203Z,424.14
2019-05-25T08:46:25.623Z,425.34
2019-05-25T08:47:25.593Z,424.44
2019-05-25T08:48:25.575Z,424.89
2019-05-25T08:49:25.551Z,424.53
2019-05-25T08:50:37.690Z,424.77
2019-05-25T08:51:26.529Z,424.24
2019-05-25T08:52:25.517Z,425.23
2019-05-25T08:53:39.990Z,425.02
2019-05-25T08:54:26.496Z,425.45
2019-05-25T08:55:25.484Z,425.65
2019-05-25T08:56:25.486Z,425.98
2019-05-25T08:57:25.471Z,425.85
2019-05-25T08:58:25.611Z,423.91
2019-05-25T08:59:25.521Z,424.35
2019-05-25T09:00:25.626Z,425.50
2019-05-25T09:01:25.419Z,426.14
2019-05-25T09:02:25.485Z,426.21
2019-05-25T09:03:25.517Z,423.65
2019-05-25T09:04:25.771Z,423.03
2019-05-25T09:05:25.405Z,424.73
2019-05-25T09:06:25.428Z,424.72
2019-05-25T09:07:25.602Z,425.21
2019-05-25T09:08:25.341Z,424.72
2019-05-25T09:09:25.454Z,423.50
2019-05-25T09:10:25.319Z,425.06
2019-05-25T09:11:25.317Z,424.58
2019-05-25T09:12:25.855Z,424.13
2019-05-25T09:13:25.283Z,423.80
2019-05-25T09:14:25.274Z,424.47
2019-05-25T09:15:25.286Z,424.76
2019-05-25T09:16:25.259Z,425.11
2019-05-25T09:17:25.241Z,424.86
2019-05-25T09:18:25.266Z,425.46
2019-05-25T09:19:25.215Z,425.73
2019-05-25T09:20:25.205Z,424.92
2019-05-25T09:21:25.193Z,423.92
2019-05-25T09:22:25.193Z,423.40
2019-05-25T09:23:25.177Z,423.74
2019-05-25T09:24:25.208Z,422.81
2019-05-25T09:25:25.145Z,423.73
2019-05-25T09:26:25.135Z,424.00
2019-05-25T09:27:25.247Z,423.90
2019-05-25T09:28:25.195Z,425.56
2019-05-25T09:29:25.097Z,424.07
2019-05-25T09:30:25.090Z,426.08
2019-05-25T09:31:25.077Z,425.35
2019-05-25T09:32:25.069Z,423.72
2019-05-25T09:33:25.067Z,423.55
2019-05-25T09:34:25.045Z,425.35
2019-05-25T09:35:25.033Z,424.58
2019-05-25T09:36:25.023Z,424.05
2019-05-25T09:37:25.117Z,423.95
2019-05-25T09:38:25.007Z,424.46
2019-05-25T09:39:25.011Z,425.11
2019-05-25T09:40:25.055Z,425.28
2019-05-25T09:41:24.991Z,423.98
2019-05-25T09:42:24.959Z,423.68
2019-05-25T09:43:24.942Z,423.65
2019-05-25T09:44:24.946Z,425.43
2019-05-25T09:45:24.920Z,424.95
2019-05-25T09:46:24.910Z,424.69
2019-05-25T09:47:24.903Z,424.75
2019-05-25T09:48:24.887Z,424.86
2019-05-25T09:49:24.941Z,424.27
2019-05-25T09:50:24.881Z,423.99
2019-05-25T09:51:24.853Z,422.79
2019-05-25T09:52:24.842Z,424.74
2019-05-25T09:53:24.832Z,422.69
2019-05-25T09:54:24.819Z,423.86
2019-05-25T09:55:24.811Z,424.87
2019-05-25T09:56:24.797Z,423.77
2019-05-25T09:57:24.835Z,424.12
2019-05-25T09:58:24.791Z,422.96
2019-05-25T09:59:24.781Z,422.58
2019-05-25T10:00:24.755Z,423.91
2019-05-25T10:01:24.754Z,423.35
2019-05-25T10:02:24.728Z,425.08
2019-05-25T10:03:24.715Z,424.64
2019-05-25T10:04:24.712Z,423.80
2019-05-25T10:05:24.694Z,424.47
2019-05-25T10:06:24.705Z,424.03
2019-05-25T10:07:24.687Z,424.80
2019-05-25T10:08:24.727Z,424.02
2019-05-25T10:09:24.648Z,423.34
2019-05-25T10:10:24.654Z,424.10
2019-05-25T10:11:24.628Z,424.47
2019-05-25T10:12:24.633Z,424.89
2019-05-25T10:13:24.641Z,424.15
2019-05-25T10:14:24.593Z,424.42
2019-05-25T10:15:24.579Z,424.52
2019-05-25T10:16:24.567Z,424.05
2019-05-25T10:17:24.576Z,424.08
2019-05-25T10:18:24.569Z,423.86
2019-05-25T10:19:24.548Z,423.07
2019-05-25T10:20:24.520Z,424.83
2019-05-25T10:21:25.419Z,424.61
2019-05-25T10:22:24.503Z,424.69
2019-05-25T10:23:24.603Z,424.74
2019-05-25T10:24:24.479Z,424.75
2019-05-25T10:25:24.466Z,424.25
2019-05-25T10:26:24.457Z,424.28
2019-05-25T10:27:24.465Z,424.64
2019-05-25T10:28:24.443Z,424.17
2019-05-25T10:29:36.750Z,423.86
2019-05-25T10:30:25.412Z,423.59
2019-05-25T10:31:24.400Z,422.57
2019-05-25T10:32:24.391Z,422.51
2019-05-25T10:33:24.379Z,423.88
2019-05-25T10:34:24.389Z,423.16
2019-05-25T10:35:24.353Z,423.15
2019-05-25T10:36:24.346Z,423.56
2019-05-25T10:37:24.336Z,424.14
2019-05-25T10:38:24.847Z,424.31
2019-05-25T10:39:24.329Z,423.95
2019-05-25T10:40:24.510Z,424.78
2019-05-25T10:41:24.292Z,423.20
2019-05-25T10:42:24.301Z,423.58
2019-05-25T10:43:24.265Z,423.66
2019-05-25T10:44:24.264Z,423.01
2019-05-25T10:45:24.254Z,422.80
2019-05-25T10:46:24.361Z,423.82
2019-05-25T10:47:24.276Z,421.82
2019-05-25T10:48:24.340Z,422.28
2019-05-25T10:49:24.200Z,423.88
2019-05-25T10:50:24.219Z,423.60
2019-05-25T10:51:24.181Z,422.21
2019-05-25T10:52:24.172Z,423.76
2019-05-25T10:53:24.173Z,423.88
2019-05-25T10:54:24.148Z,423.11
2019-05-25T10:55:24.137Z,423.35
2019-05-25T10:56:24.131Z,423.82
2019-05-25T10:57:24.162Z,423.46
2019-05-25T10:58:24.099Z,423.81
2019-05-25T10:59:24.093Z,424.87
2019-05-25T11:00:24.078Z,424.37
2019-05-25T11:01:24.069Z,424.32
2019-05-25T11:02:24.060Z,423.82
2019-05-25T11:03:24.061Z,423.08
2019-05-25T11:04:24.270Z,424.34
2019-05-25T11:05:24.024Z,424.19
2019-05-25T11:06:24.023Z,424.21
2019-05-25T11:07:24.039Z,423.12
2019-05-25T11:08:24.026Z,424.48
2019-05-25T11:09:23.981Z,423.81
2019-05-25T11:10:23.970Z,423.71
2019-05-25T11:11:24.018Z,423.53
2019-05-25T11:12:26.013Z,424.04
2019-05-25T11:13:23.938Z,423.85
2019-05-25T11:14:23.942Z,424.02
2019-05-25T11:15:23.914Z,424.95
2019-05-25T11:16:23.908Z,423.89
2019-05-25T11:17:23.931Z,424.95
2019-05-25T11:18:23.899Z,423.11
2019-05-25T11:19:24.517Z,423.69
2019-05-25T11:20:23.894Z,424.17
2019-05-25T11:21:23.845Z,423.85
2019-05-25T11:22:23.833Z,424.68
2019-05-25T11:23:23.842Z,424.18
2019-05-25T11:24:23.812Z,423.53
2019-05-25T11:25:23.805Z,423.96
2019-05-25T11:26:23.792Z,423.07
2019-05-25T11:27:23.782Z,424.16
2019-05-25T11:28:23.778Z,423.19
2019-05-25T11:29:23.759Z,423.71
2019-05-25T11:30:23.760Z,423.56
2019-05-25T11:31:23.808Z,423.21
2019-05-25T11:32:23.730Z,425.19
2019-05-25T11:33:23.713Z,424.25
2019-05-25T11:34:23.708Z,423.55
2019-05-25T11:35:23.707Z,424.46
2019-05-25T11:36:23.678Z,423.84
2019-05-25T11:37:23.666Z,423.45
2019-05-25T11:38:23.663Z,423.73
2019-05-25T11:39:23.642Z,423.80
2019-05-25T11:40:23.640Z,423.92
2019-05-25T11:41:23.640Z,422.69
2019-05-25T11:42:23.633Z,423.06
2019-05-25T11:43:23.601Z,423.49
2019-05-25T11:44:23.585Z,424.31
2019-05-25T11:45:23.584Z,424.28
2019-05-25T11:46:23.565Z,423.44
2019-05-25T11:47:23.564Z,424.15
2019-05-25T11:48:23.559Z,423.79
2019-05-25T11:49:23.537Z,423.90
2019-05-25T11:50:23.540Z,424.18
2019-05-25T11:51:23.546Z,423.62
2019-05-25T11:52:23.513Z,424.66
2019-05-25T11:53:23.502Z,424.34
2019-05-25T11:54:23.476Z,424.90
2019-05-25T11:55:23.465Z,424.13
2019-05-25T11:56:23.456Z,425.07
2019-05-25T11:57:23.447Z,424.89
2019-05-25T11:58:23.440Z,425.05
2019-05-25T11:59:23.432Z,424.32
2019-05-25T12:00:25.374Z,424.39
2019-05-25T12:01:23.402Z,424.93
2019-05-25T12:02:23.393Z,425.17
2019-05-25T12:03:23.425Z,424.73
2019-05-25T12:04:23.379Z,424.70
2019-05-25T12:05:23.397Z,425.50
2019-05-25T12:06:23.342Z,424.99
2019-05-25T12:07:23.352Z,424.64
2019-05-25T12:08:23.314Z,425.63
2019-05-25T12:09:23.314Z,425.36
2019-05-25T12:10:23.321Z,424.62
2019-05-25T12:11:23.287Z,425.29
2019-05-25T12:12:23.273Z,425.28
2019-05-25T12:13:23.270Z,425.84
2019-05-25T12:14:23.254Z,423.82
2019-05-25T12:15:23.254Z,424.93
2019-05-25T12:16:23.250Z,425.66
2019-05-25T12:17:23.220Z,425.10
2019-05-25T12:18:23.211Z,425.48
2019-05-25T12:19:23.199Z,423.47
2019-05-25T12:20:23.192Z,425.16
2019-05-25T12:21:23.190Z,425.21
2019-05-25T12:22:23.167Z,425.44
2019-05-25T12:23:23.152Z,424.19
2019-05-25T12:24:23.158Z,424.81
2019-05-25T12:25:23.132Z,424.46
2019-05-25T12:26:23.124Z,424.86
2019-05-25T12:27:23.129Z,424.63
2019-05-25T12:28:23.106Z,425.86